Time;durP1;ratioP1;P1;durP2;ratioP2;P2;SDS_P1;SDS_P2;PMS_P1;PMS_P2;Temp;Humidity;BMP_temperature;BMP_pressure;BME280_temperature;BME280_humidity;BME280_pressure;Samples;Min_cycle;Max_cycle;Signal;HPM_P1;HPM_P2
2022/12/03 00:02:19;;;;;;;8.85;3.90;;;3.70;99.90;;;3.39;100.00;101552.19;5109621;28;20123;-71
2022/12/03 00:04:51;;;;;;;9.15;3.83;;;3.70;99.90;;;3.41;100.00;101544.56;5106321;29;20130;-70
2022/12/03 00:07:23;;;;;;;10.55;4.57;;;3.70;99.90;;;3.43;100.00;101549.03;5107132;29;20048;-72
2022/12/03 00:09:55;;;;;;;9.85;4.47;;;3.70;99.90;;;3.46;100.00;101554.44;5106218;29;20044;-72
2022/12/03 00:12:29;;;;;;;10.15;4.45;;;3.70;99.90;;;3.49;100.00;101548.59;5106740;29;20131;-71
2022/12/03 00:15:01;;;;;;;10.25;4.57;;;3.80;99.90;;;3.52;100.00;101549.75;5105551;29;20067;-70
2022/12/03 00:17:34;;;;;;;9.63;4.35;;;3.80;99.90;;;3.50;100.00;101546.13;5106636;29;20052;-71
2022/12/03 00:20:08;;;;;;;9.95;4.55;;;3.80;99.90;;;3.51;100.00;101542.75;5106596;29;20048;-71
2022/12/03 00:22:40;;;;;;;9.25;3.75;;;3.80;99.90;;;3.51;100.00;101541.88;5106280;29;20405;-69
2022/12/03 00:25:13;;;;;;;10.13;4.00;;;3.80;99.90;;;3.50;100.00;101538.41;5105904;29;20048;-71
2022/12/03 00:27:46;;;;;;;11.35;4.50;;;3.80;99.90;;;3.50;100.00;101535.81;5099710;29;20048;-70
2022/12/03 00:30:18;;;;;;;9.63;4.45;;;3.80;99.90;;;3.52;100.00;101538.50;5106116;29;20122;-69
2022/12/03 00:32:50;;;;;;;9.57;4.45;;;3.80;99.90;;;3.54;100.00;101542.13;5120952;29;20047;-71
2022/12/03 00:35:23;;;;;;;10.02;4.40;;;3.80;99.90;;;3.55;100.00;101533.59;5105533;29;20527;-71
2022/12/03 00:37:55;;;;;;;9.32;4.72;;;3.90;99.90;;;3.56;100.00;101535.38;5121009;29;20051;-70
2022/12/03 00:40:27;;;;;;;7.40;4.10;;;3.90;99.90;;;3.57;100.00;101532.03;5105928;29;20044;-69
2022/12/03 00:43:00;;;;;;;8.82;4.22;;;3.90;99.90;;;3.56;100.00;101525.06;5299000;23;20062;-69
2022/12/03 00:45:32;;;;;;;9.25;3.60;;;3.90;99.90;;;3.59;100.00;101532.16;5150624;28;20058;-69
2022/12/03 00:48:05;;;;;;;8.00;3.75;;;3.90;99.90;;;3.59;100.00;101529.59;5162741;28;20105;-69
2022/12/03 00:50:37;;;;;;;9.43;4.22;;;3.90;99.90;;;3.56;100.00;101529.34;5162643;28;20053;-69
2022/12/03 00:53:09;;;;;;;9.48;3.63;;;3.90;99.90;;;3.55;100.00;101523.28;5162910;28;20050;-69
2022/12/03 00:55:41;;;;;;;9.23;4.40;;;3.90;99.90;;;3.55;100.00;101528.44;5161007;28;20507;-69
2022/12/03 00:58:16;;;;;;;9.40;4.10;;;3.80;99.90;;;3.57;100.00;101525.97;5161447;28;20062;-69
2022/12/03 01:00:48;;;;;;;10.02;4.30;;;3.90;99.90;;;3.59;100.00;101524.44;5164816;28;20046;-70
2022/12/03 01:03:20;;;;;;;8.88;3.72;;;3.90;99.90;;;3.60;100.00;101521.06;5165154;28;20049;-70
2022/12/03 01:05:53;;;;;;;8.80;4.07;;;3.90;99.90;;;3.60;100.00;101518.47;5165267;28;20053;-70
2022/12/03 01:08:27;;;;;;;8.13;3.70;;;3.90;99.90;;;3.63;100.00;101518.69;5165708;28;20061;-69
2022/12/03 01:10:59;;;;;;;9.63;3.95;;;3.90;99.90;;;3.64;100.00;101523.06;5165187;28;20050;-69
2022/12/03 01:13:33;;;;;;;8.38;3.85;;;3.90;99.90;;;3.66;100.00;101519.81;5164996;28;20050;-68
2022/12/03 01:16:06;;;;;;;8.48;3.53;;;3.90;99.90;;;3.65;100.00;101525.78;5163702;28;20042;-70
2022/12/03 01:18:38;;;;;;;7.78;3.80;;;4.00;99.90;;;3.64;100.00;101520.47;5180732;28;20125;-68
2022/12/03 01:21:12;;;;;;;6.68;3.35;;;3.90;99.90;;;3.64;100.00;101529.09;5185374;28;20050;-68
2022/12/03 01:23:44;;;;;;;7.15;3.30;;;4.00;99.90;;;3.68;100.00;101525.97;5185364;28;20057;-69
2022/12/03 01:26:16;;;;;;;5.30;3.28;;;4.00;99.90;;;3.71;100.00;101538.19;5185280;28;20049;-68
2022/12/03 01:28:50;;;;;;;6.60;3.33;;;4.00;99.90;;;3.73;100.00;101536.66;5185432;28;20050;-69
2022/12/03 01:34:23;;;;;;;7.65;2.75;;;4.00;99.90;;;3.76;100.00;101534.28;5122244;29;20397;-70
2022/12/03 01:36:55;;;;;;;6.47;3.20;;;4.10;99.90;;;3.76;100.00;101544.59;5172968;28;20061;-69
2022/12/03 01:39:28;;;;;;;8.30;3.67;;;4.10;99.90;;;3.75;100.00;101533.38;5183398;28;20494;-68
2022/12/03 01:42:00;;;;;;;8.13;3.95;;;4.00;99.90;;;3.74;100.00;101538.44;5185180;28;20053;-69
2022/12/03 01:44:35;;;;;;;6.75;3.80;;;4.00;99.90;;;3.76;100.00;101542.91;5184552;28;20057;-68
2022/12/03 01:47:10;;;;;;;;;;;4.10;99.90;;;3.78;100.00;101537.84;5185460;28;20049;-69
2022/12/03 01:49:47;;;;;;;8.80;3.60;;;4.10;99.90;;;3.80;100.00;101542.38;5183427;28;19933;-68
2022/12/03 01:52:23;;;;;;;9.93;4.57;;;4.10;99.90;;;3.80;100.00;101537.22;5183139;28;20046;-71
2022/12/03 01:54:57;;;;;;;;;;;4.10;99.90;;;3.82;100.00;101534.72;5184946;28;20053;-68
2022/12/03 01:57:37;;;;;;;7.32;3.95;;;4.10;99.90;;;3.83;100.00;101539.09;5184965;28;19921;-68
2022/12/03 02:00:15;;;;;;;8.60;3.78;;;4.20;99.90;;;3.83;100.00;101538.22;5183113;28;20141;-69
2022/12/03 02:02:50;;;;;;;9.55;3.70;;;4.10;99.90;;;3.82;100.00;101534.72;5185034;28;20050;-69
2022/12/03 02:05:23;;;;;;;;;;;4.20;99.90;;;3.85;100.00;101534.03;5184565;28;20046;-68
2022/12/03 02:07:56;;;;;;;6.80;3.38;;;4.10;99.90;;;3.84;100.00;101533.16;5184685;28;19926;-70
2022/12/03 02:10:33;;;;;;;10.15;4.45;;;4.20;99.90;;;3.85;100.00;101529.81;5184270;28;20049;-68
2022/12/03 02:13:08;;;;;;;8.68;3.88;;;4.10;99.90;;;3.83;100.00;101526.22;5184382;28;20050;-69
2022/12/03 02:15:41;;;;;;;11.13;4.25;;;4.10;99.90;;;3.83;100.00;101526.22;5184330;28;20403;-69
2022/12/03 02:18:13;;;;;;;9.85;4.35;;;4.20;99.90;;;3.80;100.00;101526.00;5183023;28;20422;-70
2022/12/03 02:21:06;;;;;;;9.02;3.45;;;4.10;99.90;;;3.77;100.00;101521.50;5183481;28;20395;-69
2022/12/03 02:23:46;;;;;;;9.95;4.47;;;4.10;99.90;;;3.77;100.00;101525.75;5182590;28;20074;-68
2022/12/03 02:26:19;;;;;;;9.13;4.15;;;4.10;99.90;;;3.77;100.00;101520.59;5184351;28;20042;-68
2022/12/03 02:28:51;;;;;;;10.15;4.13;;;4.10;99.90;;;3.76;100.00;101530.00;5184196;28;20044;-69
2022/12/03 02:31:24;;;;;;;11.90;5.32;;;4.10;99.90;;;3.73;100.00;101529.81;5183846;28;20045;-69
2022/12/03 02:33:57;;;;;;;10.25;4.47;;;4.10;99.90;;;3.66;100.00;101526.66;5184153;28;20048;-69
2022/12/03 02:36:30;;;;;;;10.65;4.55;;;4.10;99.90;;;3.65;100.00;101530.00;5183715;28;20034;-69
2022/12/03 02:39:04;;;;;;;12.05;5.25;;;4.00;99.90;;;3.68;100.00;101519.94;5182741;28;20050;-69
2022/12/03 02:44:27;;;;;;;9.93;4.47;;;4.10;99.90;;;3.75;100.00;101517.03;5162827;28;20822;-69
2022/12/03 02:47:01;;;;;;;12.48;5.25;;;4.10;99.90;;;3.75;100.00;101517.91;5163287;28;20042;-69
2022/12/03 02:49:33;;;;;;;10.70;4.72;;;4.10;99.90;;;3.75;100.00;101515.34;5162383;28;20263;-69
2022/12/03 02:52:05;;;;;;;8.00;4.50;;;4.10;99.90;;;3.79;100.00;101519.06;5163452;28;20046;-69
2022/12/03 02:54:37;;;;;;;10.57;4.28;;;4.10;99.90;;;3.84;100.00;101509.94;5163036;28;20046;-69
2022/12/03 02:57:12;;;;;;;8.75;3.67;;;4.20;99.90;;;3.86;100.00;101513.56;5163206;28;20042;-69
2022/12/03 02:59:45;;;;;;;11.15;4.95;;;4.20;99.90;;;3.87;100.00;101514.44;5163677;28;20107;-69
2022/12/03 03:02:17;;;;;;;11.27;4.72;;;4.20;99.90;;;3.87;100.00;101517.91;5162964;28;20042;-69
2022/12/03 03:04:51;;;;;;;12.05;5.00;;;4.20;99.90;;;3.85;100.00;101519.50;5160797;28;20076;-69
2022/12/03 03:07:23;;;;;;;13.00;5.05;;;4.20;99.90;;;3.87;100.00;101517.03;5162110;28;20134;-69
2022/12/03 03:09:57;;;;;;;12.82;4.45;;;4.20;99.90;;;3.87;100.00;101507.59;5163334;28;20039;-69
2022/12/03 03:12:32;;;;;;;11.20;4.35;;;4.20;99.90;;;3.89;100.00;101499.97;5163638;28;20038;-69
2022/12/03 03:15:07;;;;;;;10.32;4.57;;;4.20;99.90;;;3.89;100.00;101500.84;5161608;28;20407;-69
2022/12/03 03:17:40;;;;;;;14.57;5.97;;;4.20;99.90;;;3.88;100.00;101503.34;5161939;28;20064;-70
2022/12/03 03:20:13;;;;;;;15.20;5.75;;;4.20;99.90;;;3.87;100.00;101501.56;5163598;28;20042;-68
2022/12/03 03:22:46;;;;;;;13.77;6.40;;;4.20;99.90;;;3.83;100.00;101500.41;5163089;28;20349;-70
2022/12/03 03:25:21;;;;;;;16.13;6.18;;;4.20;99.90;;;3.79;100.00;101493.25;5162688;28;20078;-69
2022/12/03 03:27:55;;;;;;;13.27;5.70;;;4.20;99.90;;;3.75;100.00;101501.53;5163025;28;20038;-69
2022/12/03 03:30:27;;;;;;;16.20;5.88;;;4.10;99.90;;;3.71;100.00;101487.50;5161651;28;20522;-70
2022/12/03 03:33:00;;;;;;;14.05;5.93;;;4.10;99.90;;;3.71;100.00;101499.50;5163308;28;20038;-69
2022/12/03 03:35:32;;;;;;;13.40;5.68;;;4.10;99.90;;;3.71;100.00;101499.50;5161537;28;20057;-69
2022/12/03 03:38:05;;;;;;;12.70;5.32;;;4.10;99.90;;;3.72;100.00;101499.66;5163227;28;20073;-69
2022/12/03 03:40:38;;;;;;;12.73;5.90;;;4.10;99.90;;;3.75;100.00;101491.22;5163121;28;20471;-68
2022/12/03 03:43:12;;;;;;;13.20;5.40;;;4.10;99.90;;;3.79;100.00;101495.84;5163267;28;20474;-69
2022/12/03 03:45:45;;;;;;;12.70;4.85;;;4.10;99.90;;;3.81;100.00;101494.25;5162388;28;20058;-69
2022/12/03 03:48:19;;;;;;;12.77;5.10;;;4.20;99.90;;;3.83;100.00;101499.53;5162748;28;20054;-69
2022/12/03 03:50:52;;;;;;;12.50;5.32;;;4.20;99.90;;;3.84;100.00;101491.88;5162657;28;20395;-69
2022/12/03 03:53:24;;;;;;;11.77;4.80;;;4.20;99.90;;;3.87;100.00;101496.38;5162748;28;20046;-71
2022/12/03 03:55:56;;;;;;;10.85;4.28;;;4.20;99.90;;;3.85;100.00;101490.19;5162658;28;20503;-71
2022/12/03 03:58:30;;;;;;;12.63;5.30;;;4.20;99.90;;;3.86;100.00;101500.66;5163057;28;20577;-71
2022/12/03 04:01:03;;;;;;;13.63;5.20;;;4.20;99.90;;;3.84;100.00;101491.00;5162577;28;20038;-69
2022/12/03 04:03:35;;;;;;;12.30;5.47;;;4.20;99.90;;;3.81;100.00;101489.09;5162889;28;20121;-69
2022/12/03 04:06:10;;;;;;;13.18;5.38;;;4.20;99.90;;;3.82;100.00;101490.88;5162595;28;20094;-70
2022/12/03 04:08:42;;;;;;;13.45;5.10;;;4.10;99.90;;;3.83;100.00;101489.19;5162463;28;20495;-69
2022/12/03 04:14:05;;;;;;;13.65;5.40;;;4.20;99.90;;;3.85;100.00;101487.63;5162305;28;20046;-69
2022/12/03 04:16:37;;;;;;;12.95;5.18;;;4.20;99.90;;;3.86;100.00;101492.91;5166335;28;20104;-68
2022/12/03 04:19:09;;;;;;;16.15;5.80;;;4.20;99.90;;;3.85;100.00;101496.28;5166317;28;20046;-70
2022/12/03 04:24:34;;;;;;;12.18;4.70;;;4.20;99.90;;;3.79;100.00;101493.25;5131761;28;20120;-69
2022/12/03 04:29:57;;;;;;;13.10;5.55;;;4.10;99.90;;;3.77;100.00;101492.22;5166322;28;20519;-70
2022/12/03 04:38:16;;;;;;;9.60;4.63;;;4.10;99.90;;;3.77;100.00;101489.66;5159553;28;20531;-69
2022/12/03 04:41:00;;;;;;;12.95;5.20;;;4.10;99.90;;;3.79;100.00;101482.94;5164287;28;20047;-69
2022/12/03 04:44:31;;;;;;;11.15;4.55;;;4.10;99.90;;;3.78;100.00;101476.88;5165747;28;20054;-69
2022/12/03 04:46:29;;;;;;;11.35;4.95;;;4.10;99.90;;;3.78;100.00;101471.72;5165705;28;20046;-68
2022/12/03 04:49:01;;;;;;;12.70;5.20;;;4.10;99.90;;;3.77;100.00;101479.34;5165800;28;20050;-69
2022/12/03 04:51:33;;;;;;;12.77;4.85;;;4.10;99.90;;;3.74;100.00;101479.13;5165639;28;20042;-69
2022/12/03 04:54:06;;;;;;;10.60;4.95;;;4.00;99.90;;;3.73;100.00;101477.34;5165113;28;20042;-69
2022/12/03 04:56:38;;;;;;;12.48;5.32;;;4.10;99.90;;;3.70;100.00;101472.84;5166658;28;20050;-69
2022/12/03 04:59:10;;;;;;;11.05;4.55;;;4.10;99.90;;;3.68;100.00;101470.94;5165821;28;20093;-69
2022/12/03 05:01:44;;;;;;;13.40;4.70;;;4.00;99.90;;;3.66;100.00;101472.53;5165828;28;20039;-69
2022/12/03 05:04:17;;;;;;;14.82;6.03;;;4.00;99.90;;;3.61;100.00;101479.00;5165320;28;20061;-69
2022/12/03 05:06:49;;;;;;;14.15;5.40;;;4.00;99.90;;;3.57;100.00;101480.47;5165304;28;20038;-69
2022/12/03 05:09:21;;;;;;;12.73;5.50;;;3.90;99.90;;;3.53;100.00;101469.03;5165966;28;20039;-69
2022/12/03 05:11:53;;;;;;;11.65;4.40;;;3.90;99.90;;;3.53;100.00;101479.34;5165100;28;20069;-69
2022/12/03 05:14:27;;;;;;;11.52;4.60;;;3.90;99.90;;;3.52;100.00;101480.16;5165501;28;20050;-68
2022/12/03 05:17:01;;;;;;;11.15;4.15;;;3.90;99.90;;;3.54;100.00;101476.00;5165456;28;20124;-70
2022/12/03 05:22:23;;;;;;;10.75;4.45;;;3.80;99.90;;;3.52;100.00;101468.91;5165362;28;20053;-69
2022/12/03 05:24:55;;;;;;;10.57;3.95;;;3.80;99.90;;;3.51;100.00;101470.59;5165105;28;20491;-69
2022/12/03 05:27:27;;;;;;;11.70;4.50;;;3.80;99.90;;;3.51;100.00;101465.44;5164234;28;20046;-68
2022/12/03 05:30:00;;;;;;;12.00;5.00;;;3.80;99.90;;;3.50;100.00;101461.06;5164930;28;20050;-72
2022/12/03 05:32:34;;;;;;;8.45;3.92;;;3.80;99.90;;;3.52;100.00;101462.09;5163934;28;20050;-73
2022/12/03 05:35:06;;;;;;;10.05;4.22;;;3.80;99.90;;;3.51;100.00;101457.69;5165284;28;20838;-72
2022/12/03 05:37:38;;;;;;;11.88;3.90;;;3.80;99.90;;;3.52;100.00;101469.84;5165492;28;20042;-72
2022/12/03 05:40:13;;;;;;;12.05;4.75;;;3.80;99.90;;;3.52;100.00;101466.31;5163370;28;20522;-72
2022/12/03 05:42:53;;;;;;;11.30;4.72;;;3.80;99.90;;;3.50;100.00;101458.50;5164773;28;20054;-71
2022/12/03 05:45:29;;;;;;;10.98;4.68;;;3.80;99.90;;;3.51;100.00;101462.84;5164622;28;20050;-71
2022/12/03 05:48:05;;;;;;;10.80;4.85;;;3.80;99.90;;;3.52;100.00;101467.25;5163499;28;20046;-71
2022/12/03 05:50:42;;;;;;;10.18;4.20;;;3.80;99.90;;;3.50;100.00;101458.50;5163284;28;20511;-71
2022/12/03 05:53:20;;;;;;;10.25;4.15;;;3.80;99.90;;;3.51;100.00;101459.38;5164570;28;20085;-70
2022/12/03 05:55:52;;;;;;;10.60;4.57;;;3.80;99.90;;;3.51;100.00;101464.53;5164070;28;20052;-70
2022/12/03 05:58:24;;;;;;;10.30;4.00;;;3.80;99.90;;;3.53;100.00;101469.03;5164239;28;20400;-70
2022/12/03 06:00:56;;;;;;;9.52;3.90;;;3.80;99.90;;;3.53;100.00;101463.88;5164421;28;20045;-70
2022/12/03 06:03:30;;;;;;;8.40;3.88;;;3.90;99.90;;;3.54;100.00;101454.47;5162920;28;20056;-70
2022/12/03 06:06:02;;;;;;;12.00;4.50;;;3.90;99.90;;;3.56;100.00;101457.16;5162898;28;20050;-71
2022/12/03 06:08:34;;;;;;;9.23;3.88;;;3.90;99.90;;;3.57;100.00;101452.09;5164010;28;20061;-70
2022/12/03 06:11:06;;;;;;;9.48;4.00;;;3.90;99.90;;;3.58;100.00;101456.47;5162513;28;20411;-71
2022/12/03 06:13:38;;;;;;;10.90;4.43;;;3.90;99.90;;;3.59;100.00;101452.22;5163944;28;20046;-70
2022/12/03 06:16:10;;;;;;;10.48;3.97;;;3.90;99.90;;;3.58;100.00;101463.31;5164054;28;20038;-71
2022/12/03 06:18:44;;;;;;;11.02;4.50;;;3.90;99.90;;;3.58;100.00;101461.63;5163018;28;20049;-70
2022/12/03 06:21:16;;;;;;;13.02;5.22;;;3.90;99.90;;;3.57;100.00;101457.25;5162495;28;20061;-70
2022/12/03 06:23:49;;;;;;;11.10;4.43;;;3.90;99.90;;;3.54;100.00;101459.63;5163555;28;20050;-71
2022/12/03 06:26:21;;;;;;;10.55;4.43;;;3.90;99.90;;;3.53;100.00;101455.25;5163853;28;20073;-70
2022/12/03 06:28:53;;;;;;;10.55;4.18;;;3.90;99.90;;;3.54;100.00;101455.38;5163561;28;20054;-70
2022/12/03 06:31:25;;;;;;;8.77;4.18;;;3.90;99.90;;;3.53;100.00;101456.16;5162185;28;20514;-70
2022/12/03 06:34:00;;;;;;;10.07;4.13;;;3.90;99.90;;;3.54;100.00;101450.22;5163153;28;20357;-69
2022/12/03 06:36:33;;;;;;;12.60;4.65;;;3.90;99.90;;;3.53;100.00;101448.41;5163985;28;20046;-70
2022/12/03 06:39:06;;;;;;;10.43;4.32;;;3.80;99.90;;;3.52;100.00;101449.22;5160866;28;20038;-70
2022/12/03 06:41:38;;;;;;;12.48;4.78;;;3.90;99.90;;;3.51;100.00;101455.13;5258493;23;20290;-72
2022/12/03 06:44:10;;;;;;;9.43;4.20;;;3.80;99.90;;;3.51;100.00;101455.13;5150562;28;20047;-71
2022/12/03 06:46:43;;;;;;;10.50;4.45;;;3.80;99.90;;;3.52;100.00;101453.44;5131386;28;20047;-71
2022/12/03 06:49:17;;;;;;;8.95;4.03;;;3.80;99.90;;;3.52;100.00;101453.44;5124027;28;20074;-71
2022/12/03 06:51:49;;;;;;;9.43;4.22;;;3.80;99.90;;;3.52;100.00;101454.38;5122051;29;20047;-71
2022/12/03 06:54:21;;;;;;;9.88;3.92;;;3.80;99.90;;;3.52;100.00;101451.78;5122964;28;20051;-70
2022/12/03 06:56:54;;;;;;;9.48;4.45;;;3.80;99.90;;;3.53;100.00;101458.72;5122269;28;20106;-70
2022/12/03 06:59:27;;;;;;;9.50;4.03;;;3.80;99.90;;;3.52;100.00;101456.94;5123852;29;20074;-70
2022/12/03 07:02:01;;;;;;;8.48;3.95;;;3.80;99.90;;;3.53;100.00;101458.72;5123395;29;20047;-70
2022/12/03 07:04:34;;;;;;;10.18;4.05;;;3.80;99.90;;;3.53;100.00;101452.69;5122951;28;20117;-59
2022/12/03 07:07:06;;;;;;;9.73;3.80;;;3.80;99.90;;;3.52;100.00;101467.25;5122985;29;20145;-60
2022/12/03 07:09:38;;;;;;;9.57;3.65;;;3.80;99.90;;;3.53;100.00;101463.88;5123113;29;20047;-60
2022/12/03 07:12:10;;;;;;;9.02;3.80;;;3.80;99.90;;;3.53;100.00;101458.72;5123232;29;20504;-60
2022/12/03 07:14:43;;;;;;;11.48;4.63;;;3.80;99.90;;;3.54;100.00;101464.78;5122715;28;20221;-60
2022/12/03 07:17:15;;;;;;;7.85;3.17;;;3.80;99.90;;;3.54;100.00;101460.53;5123411;29;20642;-62
2022/12/03 07:19:49;;;;;;;9.20;3.67;;;3.80;99.90;;;3.57;100.00;101458.94;5123261;29;20106;-61
2022/12/03 07:22:21;;;;;;;11.00;4.47;;;3.90;99.90;;;3.57;100.00;101457.25;5123218;29;20496;-61
2022/12/03 07:24:53;;;;;;;9.02;3.80;;;3.90;99.90;;;3.59;100.00;101457.38;5122505;28;20055;-61
2022/12/03 07:27:25;;;;;;;10.48;5.13;;;3.90;99.90;;;3.60;100.00;101448.88;5127219;28;20057;-59
2022/12/03 07:29:57;;;;;;;7.93;3.67;;;3.90;99.90;;;3.62;100.00;101457.59;5142782;28;20059;-60
2022/12/03 07:32:29;;;;;;;9.95;4.07;;;3.90;99.90;;;3.61;100.00;101456.69;5142746;28;20043;-60
2022/12/03 07:35:06;;;;;;;9.57;4.50;;;3.90;99.90;;;3.62;100.00;101457.59;5142588;28;20049;-60
2022/12/03 07:37:38;;;;;;;10.07;4.25;;;3.90;99.90;;;3.63;100.00;101455.13;5141760;28;20057;-60
2022/12/03 07:40:12;;;;;;;7.72;3.53;;;3.90;99.90;;;3.64;100.00;101459.50;5143049;28;20042;-60
2022/12/03 07:42:44;;;;;;;7.38;3.55;;;3.90;99.90;;;3.64;100.00;101451.75;5143028;28;20049;-59
2022/12/03 07:45:16;;;;;;;10.20;4.22;;;3.90;99.90;;;3.65;100.00;101458.75;5142560;28;20043;-61
2022/12/03 07:47:48;;;;;;;9.25;4.10;;;3.90;99.90;;;3.67;100.00;101464.00;5142675;28;20054;-61
2022/12/03 07:50:21;;;;;;;9.25;3.85;;;3.90;99.90;;;3.67;100.00;101456.25;5144501;28;20054;-62
2022/12/03 07:52:54;;;;;;;10.30;4.13;;;3.90;99.90;;;3.68;100.00;101463.22;5147037;28;20054;-62
2022/12/03 07:55:26;;;;;;;10.15;4.47;;;4.00;99.90;;;3.68;100.00;101458.94;5146395;28;20500;-60
2022/12/03 07:57:58;;;;;;;10.45;4.18;;;4.00;99.90;;;3.68;100.00;101455.47;5146609;28;20050;-60
2022/12/03 08:00:30;;;;;;;11.05;4.30;;;3.90;99.90;;;3.70;100.00;101459.03;5146625;28;20046;-61
2022/12/03 08:03:02;;;;;;;11.13;4.45;;;4.00;99.90;;;3.73;100.00;101457.59;5146774;28;20057;-62
2022/12/03 08:05:36;;;;;;;10.68;4.30;;;4.00;99.90;;;3.77;100.00;101463.84;5146283;28;20053;-62
2022/12/03 08:08:08;;;;;;;9.40;3.75;;;4.00;99.90;;;3.79;100.00;101454.56;5120559;28;20056;-60
2022/12/03 08:10:40;;;;;;;10.18;4.35;;;4.10;99.90;;;3.80;100.00;101458.94;5122361;28;20122;-60
2022/12/03 08:13:16;;;;;;;8.77;4.22;;;4.10;99.90;;;3.82;100.00;101467.69;5126250;28;20051;-61
2022/12/03 08:15:48;;;;;;;8.82;4.45;;;4.10;99.90;;;3.83;100.00;101463.41;5115580;28;20432;-61
2022/12/03 08:18:21;;;;;;;9.38;4.15;;;4.10;99.90;;;3.84;100.00;101475.50;5126871;28;20048;-60
2022/12/03 08:20:55;;;;;;;10.50;4.03;;;4.10;99.90;;;3.84;100.00;101465.19;5107619;28;20055;-61
2022/12/03 08:23:27;;;;;;;9.57;4.35;;;4.10;99.90;;;3.86;100.00;101477.44;5106195;29;20054;-57
2022/12/03 08:26:01;;;;;;;8.82;4.78;;;4.20;99.90;;;3.86;100.00;101468.81;5105533;29;20134;-57
2022/12/03 08:28:33;;;;;;;9.70;4.05;;;4.20;99.90;;;3.86;100.00;101469.69;5106495;29;20074;-58
2022/12/03 08:31:18;;;;;;;10.02;3.90;;;4.20;99.90;;;3.90;100.00;101470.81;5106465;29;20039;-56
2022/12/03 08:33:52;;;;;;;9.88;3.97;;;4.20;99.90;;;3.89;100.00;101469.91;5105914;29;20057;-58
2022/12/03 08:36:31;;;;;;;8.30;3.67;;;4.20;99.90;;;3.98;100.00;101468.00;5116854;29;20059;-58
2022/12/03 08:39:32;;;;;;;9.50;4.15;;;4.20;99.90;;;4.21;100.00;101464.47;5126227;28;20415;-56
2022/12/03 08:45:38;;;;;;;8.93;3.63;;;4.50;99.90;;;4.29;100.00;101470.16;5125548;28;20523;-59
2022/12/03 08:48:39;;;;;;;10.10;4.40;;;4.60;99.90;;;4.37;100.00;101476.78;5125993;28;20043;-56
2022/12/03 08:51:20;;;;;;;9.57;4.10;;;4.70;99.90;;;4.35;100.00;101465.44;5107485;28;20047;-56
2022/12/03 08:54:01;;;;;;;;;;;4.70;99.90;;;4.30;100.00;101469.38;5123327;28;20054;-57
2022/12/03 08:56:37;;;;;;;7.22;3.50;;;4.60;99.90;;;4.25;100.00;101469.06;5125219;29;19922;-57
2022/12/03 08:59:24;;;;;;;10.18;4.28;;;4.60;99.90;;;4.22;100.00;101475.69;5126003;28;20500;-56
2022/12/03 09:01:59;;;;;;;8.82;3.78;;;4.50;99.90;;;4.19;100.00;101465.16;5122949;28;20060;-56
2022/12/03 09:04:36;;;;;;;9.68;4.35;;;4.50;99.90;;;4.18;100.00;101468.53;5124656;28;20052;-58
2022/12/03 09:07:09;;;;;;;9.05;3.70;;;4.50;99.90;;;4.18;100.00;101463.38;5126049;28;20039;-58
2022/12/03 09:09:42;;;;;;;8.80;4.07;;;4.40;99.90;;;4.18;100.00;101458.22;5125895;28;20047;-57
2022/12/03 09:12:15;;;;;;;8.45;4.05;;;4.40;99.90;;;4.17;100.00;101461.56;5123839;29;20043;-57
2022/12/03 09:14:47;;;;;;;8.85;3.55;;;4.40;99.90;;;4.18;100.00;101458.22;5121888;28;20054;-57
2022/12/03 09:17:21;;;;;;;10.15;3.53;;;4.40;99.90;;;4.20;100.00;101459.19;5123806;28;20087;-57
2022/12/03 09:19:53;;;;;;;9.68;4.05;;;4.40;99.90;;;4.21;100.00;101461.00;5125583;28;20043;-57
2022/12/03 09:22:28;;;;;;;7.90;3.72;;;4.40;99.90;;;4.21;100.00;101464.47;5122540;28;20036;-56
2022/12/03 09:25:02;;;;;;;11.13;4.68;;;4.50;99.90;;;4.24;100.00;101459.53;5123608;28;20055;-58
2022/12/03 09:27:34;;;;;;;12.63;4.97;;;4.50;99.90;;;4.17;100.00;101467.59;5122987;29;20138;-57
2022/12/03 09:30:08;;;;;;;11.00;4.63;;;4.50;99.90;;;4.14;100.00;101466.50;5123247;28;20059;-58
2022/12/03 09:32:40;;;;;;;8.35;4.40;;;4.50;99.90;;;4.14;100.00;101466.50;5123241;28;20046;-57
2022/12/03 09:35:12;;;;;;;10.93;4.38;;;4.50;99.90;;;4.14;100.00;101462.25;5123990;28;20051;-59
2022/12/03 09:37:44;;;;;;;9.75;4.40;;;4.50;99.90;;;4.13;100.00;101464.72;5123895;28;20074;-57
2022/12/03 09:40:18;;;;;;;11.77;4.97;;;4.50;99.90;;;4.09;100.00;101459.31;5123795;28;20054;-56
2022/12/03 09:42:51;;;;;;;11.20;5.30;;;4.40;99.90;;;4.03;100.00;101453.72;5124856;28;20051;-57
2022/12/03 09:45:24;;;;;;;11.88;4.75;;;4.40;99.90;;;4.03;100.00;101453.72;5125258;28;20077;-56
2022/12/03 09:47:56;;;;;;;10.90;4.75;;;4.40;99.90;;;4.02;100.00;101445.88;5125515;28;20505;-57
2022/12/03 09:50:29;;;;;;;9.43;4.18;;;4.40;99.90;;;4.02;100.00;101445.88;5125673;28;20130;-56
2022/12/03 09:53:03;;;;;;;10.00;4.28;;;4.40;99.90;;;4.07;100.00;101445.44;5124975;28;20035;-58
2022/12/03 09:55:36;;;;;;;11.35;5.53;;;4.40;99.90;;;4.08;100.00;101441.16;5124708;28;20063;-57
2022/12/03 09:58:12;;;;;;;13.43;5.25;;;4.40;99.90;;;4.07;100.00;101448.00;5125429;28;20122;-59
2022/12/03 10:00:48;;;;;;;9.48;4.63;;;4.40;99.90;;;4.06;100.00;101443.66;5125131;28;20078;-57
2022/12/03 10:03:25;;;;;;;11.02;5.38;;;4.40;99.90;;;4.08;100.00;101442.06;5125016;28;20050;-56
2022/12/03 10:05:57;;;;;;;12.57;5.13;;;4.40;99.90;;;4.03;100.00;101437.34;5124651;28;20133;-55
2022/12/03 10:08:30;;;;;;;13.30;5.50;;;4.40;99.90;;;3.97;100.00;101435.22;5124859;28;20043;-56
2022/12/03 10:11:04;;;;;;;12.90;5.47;;;4.40;99.90;;;3.91;100.00;101432.25;5124863;28;20055;-57
2022/12/03 10:13:37;;;;;;;12.55;5.45;;;4.40;99.90;;;3.98;100.00;101434.47;5124384;28;20051;-57
2022/12/03 10:16:12;;;;;;;15.20;5.45;;;4.40;99.90;;;4.02;100.00;101430.41;5124907;28;20054;-57
2022/12/03 10:18:48;;;;;;;13.68;5.68;;;4.40;99.90;;;4.06;100.00;101428.16;5125163;28;20050;-55
2022/12/03 10:21:25;;;;;;;13.85;5.00;;;4.40;99.90;;;4.08;100.00;101423.09;5124800;28;20404;-56
2022/12/03 10:24:25;;;;;;;13.32;5.35;;;4.50;99.90;;;4.02;100.00;101423.56;5124604;28;20050;-57
2022/12/03 10:27:01;;;;;;;13.82;5.55;;;4.40;99.90;;;4.04;100.00;101427.16;5120891;28;20048;-56
2022/12/03 10:29:35;;;;;;;13.35;5.38;;;4.40;99.90;;;4.18;100.00;101412.66;5122774;29;20047;-57
2022/12/03 10:32:10;;;;;;;13.23;5.95;;;4.60;99.90;;;4.25;100.00;101413.97;5119105;28;20043;-57
2022/12/03 10:34:44;;;;;;;13.57;6.03;;;4.70;99.90;;;4.20;100.00;101410.19;5116713;28;20050;-57
2022/12/03 10:37:18;;;;;;;13.52;5.07;;;4.60;99.90;;;4.57;100.00;101414.50;5124429;29;20382;-57
2022/12/03 10:40:00;;;;;;;14.30;5.93;;;5.00;99.90;;;4.43;100.00;101407.47;5112840;28;20043;-58
2022/12/03 10:42:35;;;;;;;;;;;5.00;99.90;;;4.25;99.35;101412.28;5123587;28;20047;-58
2022/12/03 10:45:18;;;;;;;12.60;6.35;;;4.80;99.90;;;4.18;100.00;101406.59;5118910;29;19922;-58
2022/12/03 10:48:10;;;;;;;14.40;6.50;;;4.70;99.90;;;4.13;100.00;101389.88;5124258;29;20050;-57
2022/12/03 10:50:53;;;;;;;13.07;5.28;;;4.60;99.90;;;4.09;100.00;101389.66;5123890;28;20403;-57
2022/12/03 10:53:31;;;;;;;17.67;6.75;;;4.60;99.90;;;4.12;100.00;101385.53;5123609;28;20046;-57
2022/12/03 10:56:06;;;;;;;15.50;6.22;;;4.60;99.90;;;4.14;100.00;101383.94;5119592;28;20051;-57
2022/12/03 10:58:41;;;;;;;15.30;6.00;;;4.50;99.90;;;4.09;100.00;101375.88;5121112;29;20051;-56
2022/12/03 11:01:16;;;;;;;14.00;6.25;;;4.60;99.90;;;4.11;100.00;101373.38;5121501;28;20115;-56
2022/12/03 11:03:49;;;;;;;;;;;4.60;99.90;;;4.14;100.00;101369.34;5122169;28;20130;-56
2022/12/03 11:06:23;;;;;;;13.85;5.88;;;4.60;99.90;;;4.14;100.00;101361.59;5122051;28;19930;-57
2022/12/03 11:08:56;;;;;;;13.43;6.25;;;4.60;99.90;;;4.11;100.00;101360.47;5122169;28;20051;-55
2022/12/03 11:11:30;;;;;;;13.63;6.18;;;4.50;99.90;;;4.07;100.00;101355.13;5122110;28;20047;-56
2022/12/03 11:14:04;;;;;;;12.65;5.03;;;4.50;99.90;;;4.13;100.00;101358.94;5122694;28;20039;-56